Station Historical Data
Daily Summary for August 3, 2017 Units:  English    Metric   Both
« Previous Day
Next Day »
Daily Weekly Monthly Yearly Custom
  High: Low: Average:
Temperature: 86.9 °F 63.5 °F 74.3 °F
Dew Point: 69.3 °F 59.0 °F 63.4 °F
Humidity: 90% 45% 70%
Wind Speed: 9.0mph 0.0mph 1.9mph
Wind Gust: 21.0mph - -
Wind- - SSW
Pressure: 30.06 in 29.93 in -
Precipitation: 0.00 in    
Historical Graphs
 
 
Tabular Data for August 3, 2017
Time Temperature Dew Point Pressure Wind Wind Speed Wind Gust Humidity Rainfall Rate (Hourly)
00:04 70.8 °F 63.2 °F 30.02 in Calm     77% 0.00 in
00:09 70.6 °F 63.0 °F 30.02 in Calm     77% 0.00 in
00:14 70.5 °F 62.9 °F 30.02 in Calm     77% 0.00 in
00:19 70.4 °F 62.8 °F 30.03 in Calm     77% 0.00 in
00:24 69.7 °F 62.5 °F 30.03 in Calm     78% 0.00 in
00:29 69.2 °F 62.4 °F 30.03 in Calm     79% 0.00 in
00:34 68.9 °F 62.5 °F 30.03 in Calm     80% 0.00 in
00:39 68.8 °F 62.7 °F 30.03 in Calm     81% 0.00 in
00:44 68.8 °F 62.7 °F 30.03 in Calm     81% 0.00 in
00:49 68.8 °F 62.4 °F 30.03 in Calm     80% 0.00 in
00:54 68.8 °F 62.4 °F 30.02 in Calm     80% 0.00 in
00:59 68.9 °F 62.5 °F 30.02 in Calm     80% 0.00 in
01:04 68.7 °F 62.3 °F 30.02 in Calm     80% 0.00 in
01:09 68.6 °F 62.5 °F 30.03 in Calm     81% 0.00 in
01:14 68.5 °F 62.4 °F 30.03 in Calm     81% 0.00 in
01:19 68.3 °F 62.2 °F 30.03 in Calm     81% 0.00 in
01:24 68.2 °F 62.1 °F 30.03 in Calm     81% 0.00 in
01:29 68.3 °F 62.2 °F 30.03 in Calm     81% 0.00 in
01:34 68.3 °F 62.2 °F 30.03 in Calm     81% 0.00 in
01:39 68.2 °F 62.1 °F 30.02 in Calm     81% 0.00 in
01:44 68.0 °F 61.9 °F 30.03 in Calm     81% 0.00 in
01:49 67.8 °F 61.8 °F 30.03 in Calm     81% 0.00 in
01:54 67.6 °F 61.9 °F 30.03 in Calm     82% 0.00 in
01:59 67.5 °F 61.8 °F 30.03 in Calm     82% 0.00 in
02:04 67.4 °F 61.7 °F 30.03 in Calm     82% 0.00 in
02:09 67.1 °F 61.8 °F 30.03 in Calm     83% 0.00 in
02:14 66.9 °F 61.6 °F 30.03 in Calm     83% 0.00 in
02:19 66.9 °F 61.6 °F 30.03 in Calm     83% 0.00 in
02:24 66.8 °F 61.5 °F 30.03 in Calm     83% 0.00 in
02:29 67.0 °F 61.7 °F 30.03 in Calm     83% 0.00 in
02:34 67.2 °F 61.9 °F 30.03 in Calm     83% 0.00 in
02:39 67.1 °F 61.4 °F 30.03 in Calm     82% 0.00 in
02:44 67.1 °F 61.4 °F 30.03 in Calm     82% 0.00 in
02:49 67.0 °F 61.3 °F 30.03 in Calm     82% 0.00 in
02:54 66.9 °F 61.2 °F 30.03 in Calm     82% 0.00 in
02:59 66.7 °F 61.0 °F 30.03 in Calm     82% 0.00 in
03:04 66.5 °F 61.2 °F 30.02 in Calm     83% 0.00 in
03:09 66.4 °F 61.1 °F 30.02 in Calm     83% 0.00 in
03:14 66.4 °F 61.1 °F 30.02 in Calm     83% 0.00 in
03:19 66.3 °F 61.0 °F 30.03 in Calm     83% 0.00 in
03:24 66.1 °F 60.8 °F 30.03 in Calm     83% 0.00 in
03:29 66.1 °F 61.1 °F 30.03 in Calm     84% 0.00 in
03:34 66.1 °F 61.1 °F 30.02 in Calm     84% 0.00 in
03:39 65.9 °F 60.9 °F 30.02 in Calm     84% 0.00 in
03:44 65.8 °F 60.8 °F 30.03 in Calm     84% 0.00 in
03:54 65.9 °F 60.9 °F 30.02 in Calm     84% 0.00 in
03:59 66.1 °F 61.1 °F 30.02 in Calm     84% 0.00 in
04:04 66.1 °F 61.1 °F 30.02 in Calm     84% 0.00 in
04:09 65.9 °F 60.9 °F 30.02 in Calm     84% 0.00 in
04:14 65.8 °F 60.8 °F 30.02 in Calm     84% 0.00 in
04:19 65.7 °F 60.7 °F 30.02 in Calm   3.0 mph 84% 0.00 in
04:24 65.6 °F 60.6 °F 30.02 in Calm   3.0 mph 84% 0.00 in
04:29 65.6 °F 60.6 °F 30.02 in Calm   2.0 mph 84% 0.00 in
04:34 65.4 °F 60.4 °F 30.02 in Calm     84% 0.00 in
04:39 65.3 °F 60.3 °F 30.02 in Calm     84% 0.00 in
04:44 65.3 °F 60.7 °F 30.02 in Calm     85% 0.00 in
04:49 65.3 °F 60.3 °F 30.02 in Calm     84% 0.00 in
04:54 65.2 °F 60.2 °F 30.02 in Calm     84% 0.00 in
04:59 65.2 °F 60.2 °F 30.02 in Calm     84% 0.00 in
05:04 65.2 °F 60.2 °F 30.02 in Calm     84% 0.00 in
05:09 65.2 °F 60.2 °F 30.03 in Calm     84% 0.00 in
05:14 65.0 °F 60.0 °F 30.03 in Calm     84% 0.00 in
05:19 64.6 °F 59.7 °F 30.03 in Calm     84% 0.00 in
05:24 64.6 °F 60.0 °F 30.03 in Calm     85% 0.00 in
05:29 64.5 °F 59.6 °F 30.03 in Calm     84% 0.00 in
05:34 64.5 °F 59.9 °F 30.03 in Calm     85% 0.00 in
05:39 64.5 °F 59.6 °F 30.03 in Calm     84% 0.00 in
05:44 64.4 °F 59.5 °F 30.03 in Calm     84% 0.00 in
05:49 64.3 °F 59.4 °F 30.03 in Calm     84% 0.00 in
05:54 64.1 °F 59.2 °F 30.03 in Calm     84% 0.00 in
05:59 64.0 °F 59.4 °F 30.03 in Calm     85% 0.00 in
06:04 63.8 °F 59.2 °F 30.03 in Calm     85% 0.00 in
06:09 63.6 °F 59.0 °F 30.03 in Calm     85% 0.00 in
06:14 63.5 °F 59.2 °F 30.03 in Calm     86% 0.00 in
06:24 63.7 °F 59.4 °F 30.03 in Calm     86% 0.00 in
06:29 63.6 °F 59.3 °F 30.03 in Calm     86% 0.00 in
06:34 63.9 °F 59.6 °F 30.04 in Calm     86% 0.00 in
06:39 64.3 °F 59.7 °F 30.04 in Calm     85% 0.00 in
06:44 64.7 °F 60.1 °F 30.04 in Calm     85% 0.00 in
06:49 65.0 °F 60.0 °F 30.04 in Calm     84% 0.00 in
06:54 65.2 °F 60.2 °F 30.04 in Calm     84% 0.00 in
06:59 65.3 °F 60.3 °F 30.04 in Calm     84% 0.00 in
07:04 65.5 °F 60.2 °F 30.05 in Calm     83% 0.00 in
07:09 65.9 °F 60.6 °F 30.05 in Calm   3.0 mph 83% 0.00 in
07:14 66.3 °F 60.6 °F 30.05 in Calm     82% 0.00 in
07:19 66.6 °F 60.6 °F 30.05 in Calm   2.0 mph 81% 0.00 in
07:24 67.1 °F 60.7 °F 30.05 in Calm     80% 0.00 in
07:29 67.5 °F 60.8 °F 30.05 in Calm     79% 0.00 in
07:34 67.8 °F 60.7 °F 30.05 in Calm     78% 0.00 in
07:39 68.1 °F 60.6 °F 30.05 in Calm     77% 0.00 in
07:44 68.4 °F 60.5 °F 30.05 in Calm     76% 0.00 in
07:49 68.7 °F 60.8 °F 30.05 in Calm   2.0 mph 76% 0.00 in
07:54 69.1 °F 60.8 °F 30.05 in Calm   4.0 mph 75% 0.00 in
07:59 69.7 °F 61.4 °F 30.06 in SSW 1.0 mph 4.0 mph 75% 0.00 in
08:04 70.2 °F 61.1 °F 30.06 in SW 2.0 mph 5.0 mph 73% 0.00 in
08:09 70.4 °F 60.9 °F 30.06 in Calm   5.0 mph 72% 0.00 in
08:14 70.9 °F 61.4 °F 30.06 in SW 1.0 mph 5.0 mph 72% 0.00 in
08:19 71.2 °F 61.3 °F 30.06 in SSW 2.0 mph 5.0 mph 71% 0.00 in
08:24 71.8 °F 61.9 °F 30.06 in SW 3.0 mph 6.0 mph 71% 0.00 in
08:29 72.1 °F 61.8 °F 30.06 in SW 3.0 mph 6.0 mph 70% 0.00 in
08:34 72.5 °F 61.7 °F 30.06 in SW 3.0 mph 6.0 mph 69% 0.00 in
08:39 72.8 °F 62.0 °F 30.06 in SSW 3.0 mph 6.0 mph 69% 0.00 in
08:44 73.3 °F 62.1 °F 30.06 in WSW 3.0 mph 5.0 mph 68% 0.00 in
08:49 74.0 °F 62.3 °F 30.06 in SW 2.0 mph 5.0 mph 67% 0.00 in
08:54 74.5 °F 62.4 °F 30.06 in WSW 3.0 mph 7.0 mph 66% 0.00 in
08:59 74.8 °F 61.8 °F 30.06 in WSW 4.0 mph 7.0 mph 64% 0.00 in
09:04 74.9 °F 62.8 °F 30.06 in SW 6.0 mph 7.0 mph 66% 0.00 in
09:09 75.3 °F 62.7 °F 30.06 in WSW 5.0 mph 8.0 mph 65% 0.00 in
09:14 75.6 °F 62.1 °F 30.06 in West 3.0 mph 6.0 mph 63% 0.00 in
09:19 76.0 °F 62.9 °F 30.06 in WSW 3.0 mph 7.0 mph 64% 0.00 in
09:24 76.2 °F 62.7 °F 30.06 in WSW 3.0 mph 7.0 mph 63% 0.00 in
09:29 76.6 °F 62.6 °F 30.06 in WSW 4.0 mph 8.0 mph 62% 0.00 in
09:34 76.9 °F 63.8 °F 30.06 in WSW 4.0 mph 8.0 mph 64% 0.00 in
09:39 77.2 °F 63.2 °F 30.06 in WSW 4.0 mph 7.0 mph 62% 0.00 in
09:44 77.8 °F 63.3 °F 30.06 in WSW 4.0 mph 7.0 mph 61% 0.00 in
09:49 77.5 °F 63.9 °F 30.06 in WSW 3.0 mph 7.0 mph 63% 0.00 in
09:54 77.7 °F 63.6 °F 30.06 in WSW 5.0 mph 7.0 mph 62% 0.00 in
09:59 77.6 °F 63.1 °F 30.06 in South 5.0 mph 7.0 mph 61% 0.00 in
10:04 77.0 °F 63.0 °F 30.06 in West 2.0 mph 6.0 mph 62% 0.00 in
10:09 76.7 °F 62.7 °F 30.06 in SW 2.0 mph 6.0 mph 62% 0.00 in
10:14 76.7 °F 62.7 °F 30.06 in SSW 2.0 mph 5.0 mph 62% 0.00 in
10:19 77.4 °F 62.9 °F 30.06 in SW 3.0 mph 7.0 mph 61% 0.00 in
10:24 78.3 °F 63.3 °F 30.06 in SSW 3.0 mph 8.0 mph 60% 0.00 in
10:29 78.4 °F 63.4 °F 30.06 in SW 4.0 mph 8.0 mph 60% 0.00 in
10:34 78.7 °F 63.2 °F 30.06 in SW 3.0 mph 7.0 mph 59% 0.00 in
10:39 78.9 °F 63.4 °F 30.06 in West 3.0 mph 7.0 mph 59% 0.00 in
10:44 79.4 °F 63.8 °F 30.05 in WNW 3.0 mph 8.0 mph 59% 0.00 in
10:49 79.8 °F 64.2 °F 30.05 in WSW 3.0 mph 8.0 mph 59% 0.00 in
10:54 79.4 °F 63.3 °F 30.05 in West 2.0 mph 8.0 mph 58% 0.00 in
10:59 79.6 °F 62.5 °F 30.06 in WSW 1.0 mph 6.0 mph 56% 0.00 in
11:04 79.3 °F 63.2 °F 30.06 in SW 4.0 mph 6.0 mph 58% 0.00 in
11:09 79.8 °F 64.2 °F 30.06 in West 4.0 mph 7.0 mph 59% 0.00 in
11:14 80.0 °F 64.4 °F 30.05 in Calm   5.0 mph 59% 0.00 in
11:19 80.3 °F 63.7 °F 30.06 in WSW 3.0 mph 6.0 mph 57% 0.00 in
11:24 80.4 °F 64.3 °F 30.05 in WSW 2.0 mph 6.0 mph 58% 0.00 in
11:29 81.4 °F 65.7 °F 30.05 in WSW 3.0 mph 6.0 mph 59% 0.00 in
11:34 80.5 °F 63.9 °F 30.05 in West 3.0 mph 7.0 mph 57% 0.00 in
11:39 80.7 °F 65.5 °F 30.05 in West 2.0 mph 9.0 mph 60% 0.00 in
11:44 80.7 °F 63.5 °F 30.05 in WSW 3.0 mph 7.0 mph 56% 0.00 in
11:49 80.8 °F 63.1 °F 30.05 in West 3.0 mph 7.0 mph 55% 0.00 in
11:54 81.4 °F 64.2 °F 30.05 in West 3.0 mph 7.0 mph 56% 0.00 in
11:59 81.2 °F 64.0 °F 30.05 in SW 3.0 mph 7.0 mph 56% 0.00 in
12:04 81.0 °F 64.8 °F 30.05 in SW 4.0 mph 7.0 mph 58% 0.00 in
12:09 81.2 °F 64.5 °F 30.05 in SW 3.0 mph 7.0 mph 57% 0.00 in
12:14 81.4 °F 64.2 °F 30.05 in WSW 2.0 mph 7.0 mph 56% 0.00 in
12:19 82.1 °F 64.8 °F 30.05 in SSW 3.0 mph 7.0 mph 56% 0.00 in
12:24 81.8 °F 66.1 °F 30.04 in WNW 2.0 mph 5.0 mph 59% 0.00 in
12:29 82.8 °F 65.0 °F 30.04 in SSW 2.0 mph 6.0 mph 55% 0.00 in
12:34 83.0 °F 66.7 °F 30.04 in SSW 6.0 mph 7.0 mph 58% 0.00 in
12:39 83.0 °F 65.2 °F 30.04 in WNW 4.0 mph 7.0 mph 55% 0.00 in
12:44 83.3 °F 67.0 °F 30.04 in WNW 4.0 mph 4.0 mph 58% 0.00 in
12:49 82.9 °F 64.5 °F 30.04 in WSW 3.0 mph 8.0 mph 54% 0.00 in
12:54 82.6 °F 65.3 °F 30.04 in WSW 4.0 mph 8.0 mph 56% 0.00 in
12:59 82.1 °F 65.4 °F 30.03 in SSW 3.0 mph 7.0 mph 57% 0.00 in
13:04 82.6 °F 64.3 °F 30.03 in SSW 2.0 mph 6.0 mph 54% 0.00 in
13:09 83.5 °F 66.2 °F 30.03 in WSW 2.0 mph 7.0 mph 56% 0.00 in
13:14 83.7 °F 65.8 °F 30.03 in SW 3.0 mph 6.0 mph 55% 0.00 in
13:19 83.6 °F 66.8 °F 30.03 in SW 3.0 mph 6.0 mph 57% 0.00 in
13:24 84.1 °F 65.1 °F 30.02 in SW 5.0 mph 8.0 mph 53% 0.00 in
13:29 83.8 °F 64.8 °F 30.02 in SSW 4.0 mph 5.0 mph 53% 0.00 in
13:34 84.5 °F 67.1 °F 30.02 in SW 6.0 mph 7.0 mph 56% 0.00 in
13:39 84.7 °F 65.7 °F 30.02 in SSE 5.0 mph 6.0 mph 53% 0.00 in
13:44 84.2 °F 66.3 °F 30.01 in West 4.0 mph 5.0 mph 55% 0.00 in
13:49 84.8 °F 65.2 °F 30.01 in SW 3.0 mph 8.0 mph 52% 0.00 in
13:54 85.5 °F 65.9 °F 30.00 in WSW 3.0 mph 8.0 mph 52% 0.00 in
13:59 84.8 °F 65.2 °F 30.00 in WSW 3.0 mph 8.0 mph 52% 0.00 in
14:04 84.6 °F 64.5 °F 30.00 in SW 4.0 mph 8.0 mph 51% 0.00 in
14:09 84.7 °F 64.6 °F 30.00 in SSW 3.0 mph 7.0 mph 51% 0.00 in
14:14 85.2 °F 67.2 °F 30.00 in Calm   8.0 mph 55% 0.00 in
14:19 86.2 °F 68.1 °F 29.99 in SW 4.0 mph 8.0 mph 55% 0.00 in
14:24 85.9 °F 68.4 °F 29.99 in WNW 3.0 mph 7.0 mph 56% 0.00 in
14:29 85.6 °F 66.5 °F 29.99 in South 3.0 mph 6.0 mph 53% 0.00 in
14:34 85.7 °F 65.5 °F 29.99 in West 3.0 mph 9.0 mph 51% 0.00 in
14:39 85.7 °F 66.6 °F 29.99 in NW 7.0 mph 7.0 mph 53% 0.00 in
14:44 85.6 °F 66.0 °F 29.98 in WSW 3.0 mph 9.0 mph 52% 0.00 in
14:49 86.0 °F 66.3 °F 29.98 in WSW 4.0 mph 9.0 mph 52% 0.00 in
14:54 85.8 °F 66.7 °F 29.98 in West 4.0 mph 11.0 mph 53% 0.00 in
14:59 85.8 °F 69.3 °F 29.98 in West 5.0 mph 11.0 mph 58% 0.00 in
15:04 86.3 °F 67.7 °F 29.97 in West 3.0 mph 8.0 mph 54% 0.00 in
15:09 86.0 °F 66.9 °F 29.97 in WNW 3.0 mph 5.0 mph 53% 0.00 in
15:14 86.4 °F 67.2 °F 29.98 in SW 5.0 mph 9.0 mph 53% 0.00 in
15:19 85.6 °F 66.5 °F 29.97 in WSW 4.0 mph 9.0 mph 53% 0.00 in
15:24 86.2 °F 67.6 °F 29.97 in West 3.0 mph 7.0 mph 54% 0.00 in
15:29 86.2 °F 65.4 °F 29.97 in WSW 5.0 mph 10.0 mph 50% 0.00 in
15:34 86.3 °F 66.0 °F 29.97 in West 1.0 mph 7.0 mph 51% 0.00 in
15:39 86.6 °F 66.3 °F 29.96 in WSW 3.0 mph 8.0 mph 51% 0.00 in
15:44 86.5 °F 67.3 °F 29.97 in West 2.0 mph 7.0 mph 53% 0.00 in
15:49 86.6 °F 66.9 °F 29.96 in West 4.0 mph 9.0 mph 52% 0.00 in
15:54 85.9 °F 64.5 °F 29.96 in West 3.0 mph 9.0 mph 49% 0.00 in
15:59 86.8 °F 67.1 °F 29.96 in West 2.0 mph 5.0 mph 52% 0.00 in
16:04 86.4 °F 65.6 °F 29.96 in WSW 3.0 mph 8.0 mph 50% 0.00 in
16:09 86.8 °F 64.2 °F 29.95 in SW 4.0 mph 8.0 mph 47% 0.00 in
16:14 86.3 °F 64.9 °F 29.95 in SW 4.0 mph 10.0 mph 49% 0.00 in
16:19 86.5 °F 67.3 °F 29.95 in WSW 4.0 mph 10.0 mph 53% 0.00 in
16:24 86.9 °F 66.0 °F 29.95 in WSW 3.0 mph 7.0 mph 50% 0.00 in
16:29 86.9 °F 65.4 °F 29.95 in WSW 3.0 mph 7.0 mph 49% 0.00 in
16:34 86.2 °F 64.8 °F 29.95 in SW 2.0 mph 6.0 mph 49% 0.00 in
16:39 86.4 °F 65.6 °F 29.96 in SE 8.0 mph 11.0 mph 50% 0.00 in
16:44 85.1 °F 63.8 °F 29.95 in SSW 5.0 mph 13.0 mph 49% 0.00 in
16:49 84.4 °F 62.0 °F 29.95 in SSE 5.0 mph 13.0 mph 47% 0.00 in
16:54 84.3 °F 61.3 °F 29.95 in SSE 5.0 mph 12.0 mph 46% 0.00 in
16:59 84.2 °F 60.6 °F 29.95 in SW 6.0 mph 9.0 mph 45% 0.00 in
17:04 84.2 °F 61.8 °F 29.95 in SE 2.0 mph 7.0 mph 47% 0.00 in
17:09 84.0 °F 61.6 °F 29.95 in SE 4.0 mph 10.0 mph 47% 0.00 in
17:14 84.1 °F 61.7 °F 29.96 in ESE 8.0 mph 11.0 mph 47% 0.00 in
17:19 83.5 °F 62.9 °F 29.97 in SSE 7.0 mph 20.0 mph 50% 0.00 in
17:24 79.8 °F 63.2 °F 29.97 in SSE 9.0 mph 21.0 mph 57% 0.00 in
17:29 78.3 °F 63.3 °F 29.97 in SSE 9.0 mph 21.0 mph 60% 0.00 in
17:34 77.5 °F 63.0 °F 29.97 in SSE 7.0 mph 14.0 mph 61% 0.00 in
17:39 77.5 °F 63.5 °F 29.97 in SE 8.0 mph 17.0 mph 62% 0.00 in
17:44 77.5 °F 63.0 °F 29.97 in SSW 4.0 mph 12.0 mph 61% 0.00 in
17:49 77.4 °F 62.9 °F 29.96 in South 4.0 mph 14.0 mph 61% 0.00 in
17:54 77.8 °F 63.7 °F 29.96 in SSE 3.0 mph 11.0 mph 62% 0.00 in
17:59 78.5 °F 63.5 °F 29.96 in SSE 4.0 mph 9.0 mph 60% 0.00 in
18:04 78.5 °F 63.0 °F 29.96 in SE 5.0 mph 10.0 mph 59% 0.00 in
18:09 78.4 °F 62.4 °F 29.96 in SSE 7.0 mph 10.0 mph 58% 0.00 in
18:14 78.0 °F 62.5 °F 29.96 in SE 5.0 mph 8.0 mph 59% 0.00 in
18:19 77.6 °F 62.6 °F 29.97 in SSE 4.0 mph 8.0 mph 60% 0.00 in
18:24 77.0 °F 62.5 °F 29.97 in SE 4.0 mph 9.0 mph 61% 0.00 in
18:29 77.0 °F 62.5 °F 29.96 in SE 4.0 mph 9.0 mph 61% 0.00 in
18:34 77.3 °F 63.3 °F 29.96 in SSE 3.0 mph 7.0 mph 62% 0.00 in
18:39 77.2 °F 63.2 °F 29.96 in South 3.0 mph 7.0 mph 62% 0.00 in
18:44 77.1 °F 63.5 °F 29.96 in ESE 4.0 mph 8.0 mph 63% 0.00 in
18:49 76.8 °F 64.1 °F 29.96 in SE 3.0 mph 8.0 mph 65% 0.00 in
18:54 76.7 °F 64.0 °F 29.97 in SE 2.0 mph 5.0 mph 65% 0.00 in
18:59 76.6 °F 64.4 °F 29.97 in ESE 2.0 mph 5.0 mph 66% 0.00 in
19:04 76.3 °F 64.1 °F 29.96 in Calm   5.0 mph 66% 0.00 in
19:09 76.1 °F 64.3 °F 29.96 in SE 1.0 mph 5.0 mph 67% 0.00 in
19:14 75.9 °F 64.6 °F 29.96 in Calm   4.0 mph 68% 0.00 in
19:19 75.7 °F 64.8 °F 29.96 in ESE 2.0 mph 7.0 mph 69% 0.00 in
19:24 75.4 °F 64.5 °F 29.97 in ESE 2.0 mph 7.0 mph 69% 0.00 in
19:29 75.2 °F 64.3 °F 29.97 in ESE 2.0 mph 8.0 mph 69% 0.00 in
19:34 74.9 °F 64.5 °F 29.97 in SE 3.0 mph 8.0 mph 70% 0.00 in
19:39 74.7 °F 64.7 °F 29.97 in East 5.0 mph 6.0 mph 71% 0.00 in
19:44 74.4 °F 64.8 °F 29.97 in East 3.0 mph 6.0 mph 72% 0.00 in
19:49 74.1 °F 64.1 °F 29.97 in ESE 2.0 mph 6.0 mph 71% 0.00 in
19:54 73.8 °F 63.8 °F 29.97 in SE 2.0 mph 5.0 mph 71% 0.00 in
19:59 73.6 °F 64.0 °F 29.97 in Calm   7.0 mph 72% 0.00 in
20:04 73.4 °F 63.8 °F 29.97 in East 3.0 mph 6.0 mph 72% 0.00 in
20:09 73.4 °F 63.8 °F 29.97 in East 2.0 mph 6.0 mph 72% 0.00 in
20:14 73.5 °F 63.9 °F 29.97 in East 3.0 mph 8.0 mph 72% 0.00 in
20:19 73.4 °F 64.2 °F 29.97 in ENE 2.0 mph 8.0 mph 73% 0.00 in
20:24 73.3 °F 64.1 °F 29.97 in ENE 2.0 mph 6.0 mph 73% 0.00 in
20:29 73.0 °F 64.2 °F 29.97 in ENE 4.0 mph 7.0 mph 74% 0.00 in
20:34 73.0 °F 64.2 °F 29.97 in East 5.0 mph 6.0 mph 74% 0.00 in
20:39 73.1 °F 64.3 °F 29.97 in SE 1.0 mph 5.0 mph 74% 0.00 in
20:44 73.0 °F 64.2 °F 29.97 in ESE 1.0 mph 6.0 mph 74% 0.00 in
20:49 73.1 °F 64.7 °F 29.98 in SE 1.0 mph 5.0 mph 75% 0.00 in
20:54 72.7 °F 65.1 °F 29.98 in Calm   4.0 mph 77% 0.01 in
20:59 72.1 °F 65.2 °F 29.98 in East 1.0 mph 4.0 mph 79% 0.01 in
21:04 71.6 °F 65.1 °F 29.98 in NE 1.0 mph 4.0 mph 80% 0.01 in
21:09 71.3 °F 65.5 °F 29.98 in Calm   1.0 mph 82% 0.01 in
21:19 70.9 °F 65.5 °F 29.98 in Calm     83% 0.01 in
21:24 70.8 °F 65.4 °F 29.97 in Calm     83% 0.01 in
21:29 70.7 °F 65.6 °F 29.97 in Calm     84% 0.01 in
21:34 70.9 °F 65.8 °F 29.97 in Calm     84% 0.01 in
21:39 70.9 °F 66.2 °F 29.97 in Calm     85% 0.01 in
21:44 71.0 °F 66.6 °F 29.97 in Calm     86% 0.01 in
21:49 71.0 °F 66.6 °F 29.97 in Calm     86% 0.02 in
21:54 71.0 °F 66.6 °F 29.97 in Calm     86% 0.01 in
21:59 70.7 °F 66.3 °F 29.97 in Calm     86% 0.01 in
22:04 70.6 °F 66.2 °F 29.97 in Calm     86% 0.01 in
22:09 70.7 °F 66.6 °F 29.96 in Calm     87% 0.01 in
22:14 70.7 °F 66.6 °F 29.96 in Calm     87% 0.01 in
22:19 70.7 °F 66.6 °F 29.96 in Calm     87% 0.01 in
22:24 70.6 °F 66.5 °F 29.96 in Calm     87% 0.01 in
22:29 70.5 °F 66.4 °F 29.96 in Calm   2.0 mph 87% 0.01 in
22:34 70.4 °F 66.3 °F 29.95 in SE 1.0 mph 4.0 mph 87% 0.01 in
22:39 70.3 °F 66.6 °F 29.95 in SE 2.0 mph 4.0 mph 88% 0.01 in
22:44 70.1 °F 66.4 °F 29.94 in Calm   3.0 mph 88% 0.01 in
22:49 70.0 °F 66.3 °F 29.94 in SE 1.0 mph 3.0 mph 88% 0.00 in
22:54 69.9 °F 66.2 °F 29.94 in SE 1.0 mph 4.0 mph 88% 0.00 in
22:59 69.7 °F 66.0 °F 29.94 in SE 1.0 mph 4.0 mph 88% 0.00 in
23:04 69.7 °F 66.3 °F 29.94 in Calm   3.0 mph 89% 0.00 in
23:09 69.6 °F 66.2 °F 29.93 in Calm   1.0 mph 89% 0.00 in
23:19 69.5 °F 66.1 °F 29.93 in ESE 1.0 mph 3.0 mph 89% 0.00 in
23:24 69.5 °F 66.1 °F 29.93 in Calm   3.0 mph 89% 0.00 in
23:34 69.4 °F 66.0 °F 29.93 in Calm     89% 0.00 in
23:39 69.5 °F 66.1 °F 29.93 in Calm     89% 0.00 in
23:44 69.5 °F 66.4 °F 29.93 in West 2.0 mph 4.0 mph 90% 0.00 in
23:54 69.8 °F 66.7 °F 29.95 in West 2.0 mph 9.0 mph 90% 0.00 in
23:59 69.9 °F 66.8 °F 29.94 in Calm   10.0 mph 90% 0.00 in
Buffalo, New York, USA
Compliments of Weather Underground - 2.5 mb